Key West, FL (33040)

8:25 AM EST on December 09, 2016 (GMT -0500)
Key West High School WeatherSTEM | | Change Station

Elev 0 ft 24.55 °N, 81.78 °W | Updated 5 minutes ago

Overcast
Overcast
72.9 °F
Feels Like 73 °F
N
0.0
Wind Variable Wind from NE

Today
High -- | Low -- °F
--% Chance of Precip.
Yesterday
High -- | Low -- °F
Precip. -- in
Pressure 30.16 in
Visibility 10.0 miles
Clouds Overcast 2400 ft
Heat Index 73 °F
Dew Point 66 °F
Humidity 79%
Rainfall 0.00 in
Snow Depth Not available.
7:00 AM 5:39 PM
Waxing Gibbous, 74% visible
METAR KEYW 091253Z 02013G19KT 10SM OVC024 22/18 A3016 RMK AO2 SLP211 T02220183
Pressure 30.16 in
Visibility 10.0 miles
Clouds Overcast 2400 ft
Heat Index 73 °F
Dew Point 66 °F
Humidity 79%
Rainfall 0.00 in
Snow Depth Not available.
7:00 AM 5:39 PM
Waxing Gibbous, 74% visible
METAR KEYW 091253Z 02013G19KT 10SM OVC024 22/18 A3016 RMK AO2 SLP211 T02220183

10-Day Weather Forecast

Almanac

Astronomy

Dec. 09, 2016 Rise Set
Actual Time
Civil Twilight
Nautical Twilight
Astronomical Twilight
Moon
Length of Visible Light
Length of Day
Tomorrow will be .
, % of the Moon is Illuminated

Today's Extremes

State Highs State Lows

Community

WunderPhotos

Upload Photos

1,956,407 photos uploaded!

WunderBlog® & News

Nearby

Air Quality

  Air Quality AQ Index Pollutant
Not available.

Snow Depth

Station Depth Elevation

Earthquake Activity

City Distance Mag. Time & Date
Minimum magnitude displayed is 2.5.

Coastal Water Temperatures

Place Temperature

Stations

Nearby Weather Stations

Station Location Temp. Windchill Dew Point Humidity Wind Precip. Elev Updated Type
                   

Watches & Warnings

There are currently no watches in effect.